Time;durP1;ratioP1;P1;durP2;ratioP2;P2;SDS_P1;SDS_P2;PMS_P1;PMS_P2;Temp;Humidity;BMP_temperature;BMP_pressure;BME280_temperature;BME280_humidity;BME280_pressure;Samples;Min_cycle;Max_cycle;Signal;HPM_P1;HPM_P2
2022/12/19 00:01:59;;;;;;;17.50;7.80;;;1.20;99.90;;;;;;5072586;28;20202;-80
2022/12/19 00:04:26;;;;;;;15.97;7.93;;;1.30;99.90;;;;;;5091158;28;20197;-81
2022/12/19 00:06:57;;;;;;;15.63;7.80;;;1.20;99.90;;;;;;5077707;28;20225;-81
2022/12/19 00:09:23;;;;;;;17.47;7.43;;;1.60;42.40;;;;;;5089666;28;20203;-80
2022/12/19 00:11:50;;;;;;;20.03;9.43;;;1.50;36.80;;;;;;5075576;28;21424;-80
2022/12/19 00:14:17;;;;;;;19.63;8.47;;;1.60;99.90;;;;;;5070896;28;20205;-80
2022/12/19 00:16:44;;;;;;;16.57;8.47;;;1.70;1.00;;;;;;5072269;28;20215;-80
2022/12/19 00:19:11;;;;;;;20.53;8.20;;;1.60;67.90;;;;;;5073935;28;20582;-80
2022/12/19 00:21:39;;;;;;;19.33;8.37;;;1.50;99.90;;;;;;5093025;28;20202;-81
2022/12/19 00:24:08;;;;;;;18.70;8.80;;;1.70;99.90;;;;;;5078321;28;20304;-80
2022/12/19 00:26:38;;;;;;;18.60;8.37;;;1.60;99.90;;;;;;5073595;28;20207;-80
2022/12/19 00:29:07;;;;;;;21.33;9.57;;;1.40;1.00;;;;;;5080766;28;20245;-80
2022/12/19 00:31:35;;;;;;;21.50;10.53;;;1.60;1.00;;;;;;5070378;28;20212;-81
2022/12/19 00:34:02;;;;;;;20.93;9.33;;;1.60;99.90;;;;;;5070550;28;20209;-80
2022/12/19 00:36:31;;;;;;;18.87;8.03;;;1.50;1.00;;;;;;5073420;28;20213;-81
2022/12/19 00:38:59;;;;;;;20.43;8.93;;;1.70;99.90;;;;;;5086955;28;20222;-80
2022/12/19 00:41:29;;;;;;;17.93;8.47;;;1.60;99.90;;;;;;5072400;28;20202;-79
2022/12/19 00:43:58;;;;;;;17.17;8.20;;;1.50;1.00;;;;;;5070276;28;20194;-80
2022/12/19 00:46:26;;;;;;;18.57;8.20;;;1.50;1.00;;;;;;5071935;28;20210;-80
2022/12/19 00:48:53;;;;;;;18.37;8.53;;;1.50;1.00;;;;;;5085204;28;20650;-81
2022/12/19 00:51:22;;;;;;;21.13;9.20;;;1.50;1.00;;;;;;5083784;28;20206;-79
2022/12/19 00:53:50;;;;;;;17.50;8.50;;;1.50;1.00;;;;;;5081663;28;20194;-80
2022/12/19 00:56:18;;;;;;;20.20;8.53;;;1.60;1.00;;;;;;5081421;28;20649;-80
2022/12/19 00:58:47;;;;;;;20.97;9.60;;;1.60;1.00;;;;;;5066782;28;20240;-79
2022/12/19 01:01:16;;;;;;;19.93;9.20;;;1.60;1.00;;;;;;5075207;28;20227;-80
2022/12/19 01:03:43;;;;;;;19.63;9.67;;;1.60;1.00;;;;;;5066534;28;20202;-79
2022/12/19 01:06:11;;;;;;;19.83;8.43;;;1.70;1.00;;;;;;5069613;28;20202;-78
2022/12/19 01:08:37;;;;;;;20.27;9.10;;;1.70;1.00;;;;;;5068356;28;20234;-80
2022/12/19 01:11:05;;;;;;;19.77;8.83;;;1.80;1.00;;;;;;5084356;28;20194;-80
2022/12/19 01:13:33;;;;;;;18.93;8.50;;;1.70;72.60;;;;;;5072070;28;20209;-80
2022/12/19 01:16:04;;;;;;;18.77;9.60;;;1.80;99.90;;;;;;5070685;28;20214;-79
2022/12/19 01:18:32;;;;;;;19.30;10.17;;;1.80;99.90;;;;;;5070434;28;20236;-81
2022/12/19 01:21:00;;;;;;;20.70;9.53;;;1.70;99.90;;;;;;5066509;28;20298;-80
2022/12/19 01:23:27;;;;;;;18.37;9.20;;;1.70;99.90;;;;;;5074339;28;20198;-80
2022/12/19 01:25:56;;;;;;;22.37;9.90;;;1.70;99.90;;;;;;5080046;28;20194;-79
2022/12/19 01:28:23;;;;;;;19.20;9.07;;;1.70;99.90;;;;;;5087821;28;20636;-80
2022/12/19 01:30:50;;;;;;;20.83;10.47;;;1.70;99.90;;;;;;5067648;28;20214;-79
2022/12/19 01:33:19;;;;;;;22.47;10.03;;;1.80;99.90;;;;;;5078953;28;20194;-80
2022/12/19 01:35:47;;;;;;;21.67;9.90;;;1.60;99.90;;;;;;5069243;28;20198;-81
2022/12/19 01:38:15;;;;;;;20.57;10.07;;;1.60;99.90;;;;;;5067036;28;20229;-79
2022/12/19 01:40:49;;;;;;;24.30;11.40;;;1.60;99.90;;;;;;5068667;28;20663;-81
2022/12/19 01:43:17;;;;;;;19.57;9.70;;;1.60;99.90;;;;;;5074550;28;20202;-81
2022/12/19 01:45:44;;;;;;;20.33;9.87;;;1.60;99.90;;;;;;5088341;28;20209;-80
2022/12/19 01:48:18;;;;;;;19.77;9.67;;;1.60;99.90;;;;;;5074893;28;20225;-81
2022/12/19 01:50:52;;;;;;;22.57;10.57;;;1.60;99.90;;;;;;5068143;28;20853;-81
2022/12/19 01:53:21;;;;;;;20.13;9.43;;;1.50;99.90;;;;;;5069473;28;21328;-81
2022/12/19 01:55:49;;;;;;;18.63;10.00;;;1.50;99.90;;;;;;5081595;28;20682;-81
2022/12/19 01:58:16;;;;;;;20.87;10.10;;;1.60;99.90;;;;;;5067287;28;20261;-81
2022/12/19 02:00:44;;;;;;;20.37;9.53;;;1.60;99.90;;;;;;5079184;28;20222;-81
2022/12/19 02:03:18;;;;;;;21.10;10.33;;;1.70;99.90;;;;;;5075682;28;20225;-80
2022/12/19 02:05:46;;;;;;;22.60;10.90;;;1.70;99.90;;;;;;5073181;28;20213;-80
2022/12/19 02:08:14;;;;;;;22.23;9.70;;;1.70;99.90;;;;;;5067915;28;20580;-80
2022/12/19 02:10:41;;;;;;;24.80;10.00;;;1.60;99.90;;;;;;5078122;28;20194;-80
2022/12/19 02:13:08;;;;;;;23.53;9.50;;;1.70;99.90;;;;;;5073726;28;20205;-81
2022/12/19 02:15:46;;;;;;;17.93;9.50;;;1.60;99.90;;;;;;5072218;28;20202;-78
2022/12/19 02:18:21;;;;;;;21.90;9.90;;;1.70;99.90;;;;;;5080041;28;20217;-80
2022/12/19 02:21:13;;;;;;;22.47;10.23;;;1.70;99.90;;;;;;5069886;28;20222;-80
2022/12/19 02:24:13;;;;;;;20.37;9.73;;;1.70;99.90;;;;;;5067203;28;20255;-80
2022/12/19 02:27:06;;;;;;;21.90;9.73;;;1.70;99.90;;;;;;5077886;28;20670;-80
2022/12/19 02:30:05;;;;;;;22.33;9.27;;;1.70;99.90;;;;;;5078238;28;20578;-80
2022/12/19 02:32:45;;;;;;;20.20;9.83;;;1.80;99.90;;;;;;5064992;28;20291;-80
2022/12/19 02:35:22;;;;;;;20.30;9.47;;;1.80;99.90;;;;;;5093164;28;20301;-80
2022/12/19 02:37:55;;;;;;;23.33;10.17;;;1.80;99.90;;;;;;5071624;28;20227;-81
2022/12/19 02:40:29;;;;;;;19.83;9.17;;;1.80;99.90;;;;;;5068814;28;20230;-81
2022/12/19 02:42:58;;;;;;;20.73;9.67;;;1.70;99.90;;;;;;5066809;28;20226;-80
2022/12/19 02:45:29;;;;;;;19.57;10.13;;;1.80;99.90;;;;;;5068389;28;20207;-78
2022/12/19 02:47:59;;;;;;;23.17;10.27;;;1.90;99.90;;;;;;5076830;28;20218;-79
2022/12/19 02:50:35;;;;;;;21.47;9.97;;;2.00;99.90;;;;;;5072288;28;20199;-80
2022/12/19 02:53:01;;;;;;;20.23;9.40;;;2.00;99.90;;;;;;5068203;28;20201;-79
2022/12/19 02:55:31;;;;;;;21.50;9.80;;;2.10;99.90;;;;;;5066640;28;20221;-81
2022/12/19 02:58:22;;;;;;;18.47;8.90;;;2.20;99.90;;;;;;5068888;28;20600;-80
2022/12/19 03:00:58;;;;;;;19.07;9.43;;;2.20;99.90;;;;;;5067080;28;20225;-79
2022/12/19 03:03:35;;;;;;;19.00;9.03;;;2.40;99.90;;;;;;5067497;28;20234;-80
2022/12/19 03:06:11;;;;;;;24.97;10.33;;;2.20;99.90;;;;;;5072130;28;20204;-80
2022/12/19 03:08:47;;;;;;;21.23;10.17;;;2.30;99.90;;;;;;5067835;28;20221;-80
2022/12/19 03:11:15;;;;;;;19.20;9.47;;;2.20;99.90;;;;;;5068107;28;20551;-80
2022/12/19 03:13:45;;;;;;;23.00;9.83;;;2.20;99.90;;;;;;5067586;28;20198;-80
2022/12/19 03:16:13;;;;;;;19.73;9.80;;;2.20;99.90;;;;;;5069816;28;20201;-80
2022/12/19 03:18:41;;;;;;;20.80;9.80;;;2.30;99.90;;;;;;5069575;28;20244;-81
2022/12/19 03:21:15;;;;;;;19.63;9.23;;;2.30;99.90;;;;;;5073347;28;20244;-81
2022/12/19 03:23:42;;;;;;;21.23;10.57;;;2.30;99.90;;;;;;5072470;28;20682;-81
2022/12/19 03:26:14;;;;;;;18.80;9.17;;;2.30;99.90;;;;;;5073132;28;20206;-81
2022/12/19 03:28:45;;;;;;;19.77;9.30;;;2.20;99.90;;;;;;5069400;28;20222;-80
2022/12/19 03:31:14;;;;;;;21.33;10.00;;;2.30;99.90;;;;;;5073632;28;20216;-81
2022/12/19 03:33:45;;;;;;;24.63;10.07;;;2.30;99.90;;;;;;5070802;28;20229;-80
2022/12/19 03:36:18;;;;;;;21.77;10.93;;;2.30;99.90;;;;;;5074964;28;20202;-81
2022/12/19 03:38:46;;;;;;;22.23;10.10;;;2.30;99.90;;;;;;5072002;28;20250;-79
2022/12/19 03:41:15;;;;;;;22.47;9.87;;;2.30;99.90;;;;;;5072610;28;20221;-80
2022/12/19 03:43:44;;;;;;;19.53;9.93;;;2.30;99.90;;;;;;5072332;28;20561;-79
2022/12/19 03:46:15;;;;;;;23.17;10.47;;;2.30;99.90;;;;;;5072806;28;20288;-80
2022/12/19 03:48:45;;;;;;;20.47;9.30;;;2.40;99.90;;;;;;5072064;28;20226;-81
2022/12/19 03:51:21;;;;;;;27.70;10.07;;;2.30;99.90;;;;;;5074158;28;20222;-80
2022/12/19 03:53:59;;;;;;;22.50;11.37;;;2.40;99.90;;;;;;5073091;28;20204;-80
2022/12/19 03:56:33;;;;;;;21.60;9.93;;;2.40;99.90;;;;;;5073247;28;20906;-80
2022/12/19 03:59:06;;;;;;;19.30;9.20;;;2.50;99.90;;;;;;5071541;28;21471;-81
2022/12/19 04:01:35;;;;;;;27.57;10.50;;;2.50;99.90;;;;;;5075850;28;20201;-80
2022/12/19 04:04:05;;;;;;;22.80;9.87;;;2.40;99.90;;;;;;5094691;28;20201;-81
2022/12/19 04:06:33;;;;;;;24.87;11.13;;;2.40;99.90;;;;;;5082220;28;20202;-80
2022/12/19 04:09:02;;;;;;;20.40;9.77;;;2.40;99.90;;;;;;5092296;28;20202;-81
2022/12/19 04:11:34;;;;;;;21.70;10.67;;;2.50;99.90;;;;;;5082199;28;20208;-81
2022/12/19 04:14:04;;;;;;;23.90;11.30;;;2.50;99.90;;;;;;5093355;28;20205;-80
2022/12/19 04:16:39;;;;;;;19.70;10.17;;;2.50;99.90;;;;;;5085169;28;20212;-81
2022/12/19 04:19:12;;;;;;;21.47;10.13;;;2.50;99.90;;;;;;5094940;28;20679;-80
2022/12/19 04:21:44;;;;;;;22.97;10.20;;;2.50;99.90;;;;;;5084934;28;20200;-81
2022/12/19 04:24:16;;;;;;;23.00;10.83;;;2.50;99.90;;;;;;5089264;28;20208;-81
2022/12/19 04:26:47;;;;;;;23.17;9.07;;;2.50;99.90;;;;;;5089217;28;20928;-80
2022/12/19 04:29:15;;;;;;;21.97;10.27;;;2.50;99.90;;;;;;5079193;28;20214;-79
2022/12/19 04:31:43;;;;;;;23.83;10.47;;;2.50;99.90;;;;;;5088230;28;20205;-79
2022/12/19 04:34:11;;;;;;;20.83;9.93;;;2.40;99.90;;;;;;5089158;28;20205;-81
2022/12/19 04:36:38;;;;;;;22.57;10.57;;;2.40;99.90;;;;;;5093242;28;20210;-80
2022/12/19 04:39:05;;;;;;;20.93;10.37;;;2.40;99.90;;;;;;5081908;28;20198;-80
2022/12/19 04:41:31;;;;;;;22.27;10.07;;;2.50;99.90;;;;;;5086419;28;20218;-79
2022/12/19 04:43:58;;;;;;;22.63;10.73;;;2.40;99.90;;;;;;5093873;28;20208;-81
2022/12/19 04:46:25;;;;;;;22.30;10.10;;;2.50;99.90;;;;;;5092583;28;20205;-79
2022/12/19 04:48:51;;;;;;;21.80;9.40;;;2.50;99.90;;;;;;5093486;28;20225;-80
2022/12/19 04:51:20;;;;;;;19.30;9.80;;;2.50;99.90;;;;;;5095874;28;20732;-81
2022/12/19 04:53:46;;;;;;;22.10;10.07;;;2.70;99.90;;;;;;5081446;28;20210;-81
2022/12/19 04:56:13;;;;;;;23.73;10.37;;;2.60;99.90;;;;;;5088987;28;20572;-80
2022/12/19 04:58:40;;;;;;;21.57;10.93;;;2.50;99.90;;;;;;5094425;28;20316;-81
2022/12/19 05:01:08;;;;;;;23.93;11.03;;;2.50;99.90;;;;;;5092370;28;20225;-80
2022/12/19 05:03:36;;;;;;;22.77;9.70;;;2.50;99.90;;;;;;5098072;28;20196;-81
2022/12/19 05:06:05;;;;;;;19.83;9.60;;;2.50;99.90;;;;;;5090083;28;20208;-80
2022/12/19 05:08:34;;;;;;;21.63;10.90;;;2.50;99.90;;;;;;5095260;28;20295;-80
2022/12/19 05:11:01;;;;;;;23.70;10.60;;;2.50;99.90;;;;;;5083629;28;20204;-80
2022/12/19 05:13:28;;;;;;;22.50;10.43;;;2.50;99.90;;;;;;5085050;28;20276;-79
2022/12/19 05:15:59;;;;;;;22.70;10.53;;;2.50;99.90;;;;;;5088094;28;20289;-80
2022/12/19 05:18:26;;;;;;;22.60;10.87;;;2.50;99.90;;;;;;5094487;28;20597;-80
2022/12/19 05:20:53;;;;;;;20.50;10.23;;;2.60;99.90;;;;;;5089505;28;20638;-79
2022/12/19 05:23:20;;;;;;;23.10;11.20;;;2.50;99.90;;;;;;5095866;28;20288;-79
2022/12/19 05:25:48;;;;;;;21.27;9.80;;;2.50;99.90;;;;;;5094697;28;20571;-79
2022/12/19 05:28:15;;;;;;;22.90;10.70;;;2.50;99.90;;;;;;5096324;28;20230;-79
2022/12/19 05:30:43;;;;;;;19.80;10.03;;;2.60;99.90;;;;;;5091833;28;20288;-79
2022/12/19 05:33:10;;;;;;;19.97;10.20;;;2.60;99.90;;;;;;5095388;28;20200;-79
2022/12/19 05:35:38;;;;;;;23.70;10.77;;;2.50;99.90;;;;;;5094096;28;20273;-79
2022/12/19 05:38:05;;;;;;;23.70;11.30;;;2.60;99.90;;;;;;5095908;28;20218;-80
2022/12/19 05:40:32;;;;;;;20.20;9.63;;;2.60;99.90;;;;;;5092988;28;20243;-79
2022/12/19 05:43:00;;;;;;;23.73;11.03;;;2.50;99.90;;;;;;5093041;28;20202;-79
2022/12/19 05:45:27;;;;;;;23.10;11.73;;;2.50;99.90;;;;;;5094019;28;20204;-79
2022/12/19 05:47:54;;;;;;;22.27;10.80;;;2.50;99.90;;;;;;5094671;28;20209;-82
2022/12/19 05:50:20;;;;;;;23.97;11.63;;;2.50;99.90;;;;;;5089756;28;20233;-80
2022/12/19 05:52:47;;;;;;;22.27;10.53;;;2.50;99.90;;;;;;5093068;28;20197;-80
2022/12/19 05:55:14;;;;;;;21.93;11.40;;;2.60;99.90;;;;;;5088905;28;20194;-80
2022/12/19 05:57:41;;;;;;;23.83;11.87;;;2.50;99.90;;;;;;5095028;28;20233;-79
2022/12/19 06:00:10;;;;;;;22.77;11.13;;;2.50;99.90;;;;;;5091630;28;20229;-80
2022/12/19 06:02:37;;;;;;;23.60;11.60;;;2.50;99.90;;;;;;5092626;28;20194;-79
2022/12/19 06:05:05;;;;;;;24.67;11.47;;;2.50;99.90;;;;;;5092267;28;20202;-79
2022/12/19 06:07:31;;;;;;;22.20;11.00;;;2.50;99.90;;;;;;5088257;28;20239;-79
2022/12/19 06:09:58;;;;;;;24.70;11.33;;;2.40;99.90;;;;;;5087433;28;20197;-80
2022/12/19 06:12:25;;;;;;;23.47;11.33;;;2.40;99.90;;;;;;5089392;28;20635;-80
2022/12/19 06:14:52;;;;;;;22.83;11.30;;;2.40;99.90;;;;;;5090701;28;20198;-80
2022/12/19 06:17:20;;;;;;;20.77;10.27;;;2.50;99.90;;;;;;5091351;28;20217;-80
2022/12/19 06:19:47;;;;;;;23.77;11.33;;;2.50;99.90;;;;;;5083325;28;20202;-81
2022/12/19 06:22:14;;;;;;;19.43;10.20;;;2.60;99.90;;;;;;5088620;28;20198;-79
2022/12/19 06:24:41;;;;;;;25.33;11.40;;;2.50;99.90;;;;;;5093021;28;20202;-81
2022/12/19 06:27:08;;;;;;;23.43;11.30;;;2.50;99.90;;;;;;5092425;28;20249;-81
2022/12/19 06:29:35;;;;;;;22.50;10.60;;;2.60;99.90;;;;;;5084539;28;20202;-80
2022/12/19 06:32:02;;;;;;;25.23;10.87;;;2.60;99.90;;;;;;5089940;28;20205;-80
2022/12/19 06:34:30;;;;;;;22.43;11.47;;;2.70;99.90;;;;;;5084730;28;20297;-79
2022/12/19 06:36:57;;;;;;;23.83;10.87;;;2.70;99.90;;;;;;5094425;28;20581;-80
2022/12/19 06:39:24;;;;;;;21.23;11.07;;;2.60;99.90;;;;;;5092595;28;20198;-81
2022/12/19 06:44:35;;;;;;;20.23;10.23;;;2.70;99.90;;;;;;5082258;28;20295;-80
2022/12/19 06:47:02;;;;;;;24.67;11.07;;;2.70;99.90;;;;;;5093772;28;20236;-82
2022/12/19 06:49:31;;;;;;;22.73;11.57;;;2.70;99.90;;;;;;5094869;28;20194;-82
2022/12/19 06:51:57;;;;;;;21.37;10.43;;;2.70;99.90;;;;;;5093357;28;20588;-80
2022/12/19 06:54:24;;;;;;;25.33;11.60;;;2.70;99.90;;;;;;5093372;28;20197;-82
2022/12/19 06:56:51;;;;;;;22.50;11.80;;;2.70;99.90;;;;;;5102959;28;20219;-82
2022/12/19 06:59:18;;;;;;;24.93;12.37;;;2.60;99.90;;;;;;5097305;28;20210;-81
2022/12/19 07:01:53;;;;;;;23.80;12.27;;;2.60;99.90;;;;;;5088749;28;20312;-81
2022/12/19 07:04:24;;;;;;;22.30;11.53;;;2.60;99.90;;;;;;5098674;28;20574;-81
2022/12/19 07:06:53;;;;;;;26.03;11.97;;;2.50;99.90;;;;;;5098058;28;20228;-81
2022/12/19 07:09:20;;;;;;;22.57;11.33;;;2.50;99.90;;;;;;5098704;28;20190;-81
2022/12/19 07:11:47;;;;;;;21.93;11.03;;;2.50;99.90;;;;;;5099825;28;20194;-81
2022/12/19 07:14:14;;;;;;;26.77;12.90;;;2.70;99.90;;;;;;5096058;28;20207;-82
2022/12/19 07:16:41;;;;;;;29.90;12.90;;;2.70;99.90;;;;;;5098003;28;20204;-80
2022/12/19 07:19:08;;;;;;;26.20;13.43;;;2.70;99.90;;;;;;5094849;28;20216;-81
2022/12/19 07:21:36;;;;;;;26.03;13.07;;;2.70;99.90;;;;;;5082849;28;20225;-79
2022/12/19 07:24:05;;;;;;;26.00;13.67;;;2.70;99.90;;;;;;5077776;28;20216;-80
2022/12/19 07:26:33;;;;;;;28.33;13.60;;;2.70;99.90;;;;;;5088141;28;20252;-81
2022/12/19 07:29:00;;;;;;;28.00;13.03;;;2.70;99.90;;;;;;5074653;28;20241;-80
2022/12/19 07:31:27;;;;;;;23.67;12.77;;;2.80;99.90;;;;;;5073099;28;20225;-80
2022/12/19 07:33:53;;;;;;;25.23;12.83;;;2.70;99.90;;;;;;5071173;28;20241;-80
2022/12/19 07:36:21;;;;;;;26.23;12.37;;;2.70;99.90;;;;;;5087887;28;20212;-80
2022/12/19 07:38:48;;;;;;;27.30;13.40;;;2.80;99.90;;;;;;5074994;28;20601;-81
2022/12/19 07:41:16;;;;;;;29.00;13.63;;;2.90;99.90;;;;;;5070393;28;20222;-79
2022/12/19 07:43:44;;;;;;;28.73;13.20;;;2.80;99.90;;;;;;5072889;28;20210;-81
2022/12/19 07:46:11;;;;;;;25.77;13.23;;;2.90;99.90;;;;;;5075897;28;20251;-80
2022/12/19 07:48:38;;;;;;;30.00;14.40;;;2.90;99.90;;;;;;5070615;28;20236;-81
2022/12/19 07:51:05;;;;;;;28.47;14.00;;;2.90;99.90;;;;;;5070368;28;20216;-80
2022/12/19 07:53:32;;;;;;;27.03;13.33;;;2.80;99.90;;;;;;5089836;28;20211;-78
2022/12/19 07:55:59;;;;;;;26.97;13.40;;;2.90;99.90;;;;;;5068042;28;20217;-80
2022/12/19 07:58:27;;;;;;;28.43;14.13;;;2.90;99.90;;;;;;5073602;28;20609;-79
2022/12/19 08:00:55;;;;;;;27.03;14.60;;;2.90;99.90;;;;;;5072670;28;20746;-81
2022/12/19 08:03:22;;;;;;;28.33;13.80;;;2.90;99.90;;;;;;5079601;28;20205;-81
2022/12/19 08:05:49;;;;;;;28.13;14.50;;;2.90;99.90;;;;;;5083203;28;20209;-79
2022/12/19 08:08:15;;;;;;;26.97;14.10;;;3.10;99.90;;;;;;5086112;28;20223;-80
2022/12/19 08:10:42;;;;;;;27.03;14.63;;;2.90;99.90;;;;;;5088159;28;20565;-80
2022/12/19 08:13:09;;;;;;;26.40;13.77;;;2.90;99.90;;;;;;5089600;28;20198;-80
2022/12/19 08:15:37;;;;;;;26.80;13.33;;;3.10;99.90;;;;;;5087467;28;20237;-79
2022/12/19 08:18:04;;;;;;;24.70;12.73;;;3.00;99.90;;;;;;5092609;28;20229;-80
2022/12/19 08:20:31;;;;;;;24.70;13.67;;;3.10;99.90;;;;;;5087809;28;20289;-80
2022/12/19 08:22:58;;;;;;;29.07;13.80;;;3.00;99.90;;;;;;5086376;28;20228;-79
2022/12/19 08:25:24;;;;;;;26.43;13.40;;;3.00;99.90;;;;;;5076910;28;20346;-80
2022/12/19 08:27:51;;;;;;;27.57;13.67;;;3.10;99.90;;;;;;5089943;28;20228;-80
2022/12/19 08:30:18;;;;;;;27.30;13.43;;;3.10;99.90;;;;;;5085115;28;20206;-81
2022/12/19 08:32:47;;;;;;;23.57;12.00;;;3.10;99.90;;;;;;5087287;28;20658;-80
2022/12/19 08:35:13;;;;;;;25.80;13.03;;;3.00;99.90;;;;;;5089760;28;20198;-79
2022/12/19 08:37:40;;;;;;;25.90;13.07;;;3.10;99.90;;;;;;5083307;28;20222;-80
2022/12/19 08:40:08;;;;;;;22.87;11.83;;;3.10;99.90;;;;;;5078786;28;20215;-80
2022/12/19 08:42:35;;;;;;;27.47;13.10;;;3.20;99.90;;;;;;5083803;28;20604;-80
2022/12/19 08:45:02;;;;;;;24.23;12.43;;;3.20;99.90;;;;;;5082963;28;20221;-81
2022/12/19 08:47:29;;;;;;;24.73;12.97;;;3.20;99.90;;;;;;5082788;28;20225;-79
2022/12/19 08:49:57;;;;;;;23.67;11.57;;;3.20;99.90;;;;;;5088017;28;20908;-79
2022/12/19 08:52:24;;;;;;;24.43;12.67;;;3.30;99.90;;;;;;5075021;28;20221;-81
2022/12/19 08:54:51;;;;;;;23.47;12.33;;;3.30;99.90;;;;;;5085100;28;20229;-79
2022/12/19 08:57:18;;;;;;;25.30;12.37;;;3.40;99.90;;;;;;5086655;28;20339;-81
2022/12/19 08:59:44;;;;;;;23.20;11.77;;;3.50;99.90;;;;;;5084267;28;20583;-80
2022/12/19 09:02:11;;;;;;;23.70;10.97;;;3.50;99.90;;;;;;5092086;28;20221;-81
2022/12/19 09:04:38;;;;;;;22.23;11.23;;;3.50;99.90;;;;;;5095412;28;20507;-80
2022/12/19 09:07:06;;;;;;;23.33;10.97;;;3.60;99.90;;;;;;5093052;28;20221;-81
2022/12/19 09:09:33;;;;;;;22.67;11.07;;;3.50;99.90;;;;;;5094587;28;20197;-80
2022/12/19 09:12:00;;;;;;;20.60;10.13;;;3.60;99.90;;;;;;5089722;28;20857;-79
2022/12/19 09:14:26;;;;;;;22.83;10.63;;;3.50;99.90;;;;;;5094108;28;20487;-81
2022/12/19 09:16:53;;;;;;;22.03;10.77;;;3.60;99.90;;;;;;5093454;28;20225;-81
2022/12/19 09:19:20;;;;;;;21.37;10.13;;;3.60;99.90;;;;;;5078280;28;20210;-82
2022/12/19 09:21:47;;;;;;;21.47;11.00;;;3.60;99.90;;;;;;5076963;28;20233;-81
2022/12/19 09:24:15;;;;;;;17.77;9.43;;;3.70;99.90;;;;;;5113505;28;20195;-80
2022/12/19 09:26:42;;;;;;;19.13;9.97;;;3.80;99.90;;;;;;5110057;28;20562;-80
2022/12/19 09:29:09;;;;;;;21.90;11.13;;;3.80;99.90;;;;;;5093661;28;20201;-81
2022/12/19 09:31:36;;;;;;;21.53;10.03;;;3.80;99.90;;;;;;5078041;28;20207;-81
2022/12/19 09:34:03;;;;;;;19.33;10.00;;;3.90;99.90;;;;;;5073491;28;20587;-81
2022/12/19 09:36:30;;;;;;;18.50;9.43;;;3.80;99.90;;;;;;5074381;28;20230;-81
2022/12/19 09:38:58;;;;;;;21.17;9.10;;;3.90;99.90;;;;;;5075109;28;20208;-82
2022/12/19 09:41:50;;;;;;;18.77;9.20;;;4.00;99.90;;;;;;5075824;28;20252;-81
2022/12/19 09:44:31;;;;;;;17.00;9.17;;;4.00;99.90;;;;;;5072938;28;20617;-81
2022/12/19 09:47:00;;;;;;;19.33;9.60;;;4.00;99.90;;;;;;5073826;28;20223;-81
2022/12/19 09:49:29;;;;;;;16.13;8.80;;;4.10;99.90;;;;;;5100706;28;20203;-81
2022/12/19 09:51:59;;;;;;;16.70;8.77;;;4.10;99.90;;;;;;5111288;28;20245;-81
2022/12/19 09:54:32;;;;;;;16.70;9.57;;;4.20;99.90;;;;;;5092273;28;20562;-80
2022/12/19 09:57:04;;;;;;;19.00;9.93;;;4.10;99.90;;;;;;5095259;28;20266;-81
2022/12/19 09:59:37;;;;;;;19.00;9.87;;;4.10;99.90;;;;;;5094436;28;20206;-81
2022/12/19 10:02:30;;;;;;;18.30;9.60;;;4.20;99.90;;;;;;5094186;28;20228;-82
2022/12/19 10:05:03;;;;;;;17.87;9.10;;;4.10;99.90;;;;;;5094924;28;20204;-80
2022/12/19 10:07:30;;;;;;;17.87;9.37;;;4.10;99.90;;;;;;5094002;28;20648;-82
2022/12/19 10:09:57;;;;;;;17.33;10.03;;;4.10;99.90;;;;;;5111300;28;20193;-82
2022/12/19 10:12:47;;;;;;;20.37;9.60;;;4.20;99.90;;;;;;5099037;28;20208;-80
2022/12/19 10:15:23;;;;;;;18.73;8.73;;;4.20;99.90;;;;;;5094342;28;20190;-81
2022/12/19 10:18:14;;;;;;;19.30;9.67;;;4.40;99.90;;;;;;5094923;28;20217;-82
2022/12/19 10:20:45;;;;;;;17.93;9.47;;;4.30;99.90;;;;;;5095701;28;20239;-81
2022/12/19 10:23:29;;;;;;;19.20;10.00;;;4.40;99.90;;;;;;5088210;28;20230;-79
2022/12/19 10:26:02;;;;;;;17.30;9.57;;;4.40;99.90;;;;;;5093994;28;20284;-82
2022/12/19 10:28:45;;;;;;;20.27;11.23;;;4.40;99.90;;;;;;5083022;28;20317;-80
2022/12/19 10:31:17;;;;;;;17.70;9.63;;;4.50;99.90;;;;;;5074579;28;20219;-81
2022/12/19 10:33:49;;;;;;;18.73;10.20;;;4.40;99.90;;;;;;5073659;28;20218;-81
2022/12/19 10:36:16;;;;;;;21.03;11.07;;;4.40;99.90;;;;;;5074473;28;20212;-82
2022/12/19 10:38:50;;;;;;;19.93;11.10;;;4.40;99.90;;;;;;5085849;28;20303;-80
2022/12/19 10:41:20;;;;;;;20.00;10.63;;;4.50;99.90;;;;;;5094836;28;20209;-81
2022/12/19 10:43:57;;;;;;;20.60;11.30;;;4.50;99.90;;;;;;5093840;28;20212;-82
2022/12/19 10:46:36;;;;;;;22.80;11.47;;;4.50;99.90;;;;;;5093435;28;20371;-81
2022/12/19 10:49:12;;;;;;;20.70;11.43;;;4.60;99.90;;;;;;5093327;28;20205;-82
2022/12/19 10:51:39;;;;;;;22.10;12.13;;;4.60;99.90;;;;;;5092352;28;20201;-81
2022/12/19 10:54:06;;;;;;;22.53;12.30;;;4.60;99.90;;;;;;5093456;28;20204;-82
2022/12/19 10:56:33;;;;;;;20.67;11.20;;;4.70;99.90;;;;;;5094542;28;20214;-82
2022/12/19 10:59:01;;;;;;;22.97;12.20;;;4.70;99.90;;;;;;5093185;28;20205;-81
2022/12/19 11:01:30;;;;;;;24.67;12.87;;;4.80;99.90;;;;;;5091771;28;20208;-80
2022/12/19 11:04:24;;;;;;;22.27;12.63;;;4.80;99.90;;;;;;5077905;28;20198;-80
2022/12/19 11:07:03;;;;;;;25.70;13.43;;;4.80;99.90;;;;;;5104600;28;20225;-79
2022/12/19 11:09:35;;;;;;;25.03;12.87;;;5.00;99.90;;;;;;5074250;28;20205;-81
2022/12/19 11:12:11;;;;;;;22.93;13.03;;;5.10;99.90;;;;;;5090458;28;20556;-81
2022/12/19 11:14:41;;;;;;;24.20;13.50;;;5.00;99.90;;;;;;5093304;28;20554;-81
2022/12/19 11:17:25;;;;;;;21.77;12.33;;;5.10;99.90;;;;;;5083168;28;20222;-82
2022/12/19 11:19:52;;;;;;;23.33;14.10;;;5.10;99.90;;;;;;5073347;28;20234;-81
2022/12/19 11:22:22;;;;;;;23.07;12.60;;;5.10;99.90;;;;;;5073443;28;20234;-81
2022/12/19 11:24:52;;;;;;;22.87;12.63;;;5.10;99.90;;;;;;5073589;28;20566;-81
2022/12/19 11:27:37;;;;;;;24.23;13.07;;;5.10;99.90;;;;;;5073727;28;20233;-81
2022/12/19 11:30:17;;;;;;;24.70;13.37;;;5.00;99.90;;;;;;5074550;28;20622;-82
2022/12/19 11:32:46;;;;;;;23.00;13.27;;;5.10;99.90;;;;;;5073582;28;20297;-81
2022/12/19 11:35:20;;;;;;;26.63;14.83;;;5.10;99.90;;;;;;5074544;28;20266;-82
2022/12/19 11:37:51;;;;;;;23.33;13.70;;;5.10;99.90;;;;;;5073937;28;20226;-81
2022/12/19 11:40:28;;;;;;;23.87;13.70;;;5.10;99.90;;;;;;5077008;28;20202;-82
2022/12/19 11:42:59;;;;;;;24.03;13.07;;;5.10;99.90;;;;;;5081109;28;20225;-82
2022/12/19 11:45:43;;;;;;;23.13;13.63;;;5.20;99.90;;;;;;5078065;28;20209;-82
2022/12/19 11:48:14;;;;;;;24.70;14.43;;;5.20;99.90;;;;;;5078142;28;20221;-82
2022/12/19 11:50:49;;;;;;;23.37;13.57;;;5.30;99.90;;;;;;5077769;28;20217;-82
2022/12/19 11:53:20;;;;;;;25.83;15.00;;;5.50;99.90;;;;;;5078006;28;20198;-82
2022/12/19 11:55:52;;;;;;;26.87;14.13;;;5.50;99.90;;;;;;5079303;28;20214;-81
2022/12/19 11:58:18;;;;;;;25.53;13.70;;;5.50;99.90;;;;;;5077598;28;20606;-82
2022/12/19 12:00:55;;;;;;;27.17;14.50;;;5.50;99.90;;;;;;5077905;28;20202;-81
2022/12/19 12:03:54;;;;;;;23.40;13.87;;;5.60;99.90;;;;;;5077846;28;20244;-80
2022/12/19 12:06:20;;;;;;;25.13;13.83;;;5.70;99.90;;;;;;5078277;28;20206;-82
2022/12/19 12:08:58;;;;;;;26.67;14.70;;;5.70;99.90;;;;;;5077788;28;20728;-82
2022/12/19 12:11:30;;;;;;;25.27;13.03;;;5.60;99.90;;;;;;5077902;28;20206;-82
2022/12/19 12:14:19;;;;;;;22.67;14.03;;;5.70;99.90;;;;;;5077522;28;20201;-81
2022/12/19 12:17:18;;;;;;;24.90;13.33;;;5.70;99.90;;;;;;5077430;28;20687;-82
2022/12/19 12:20:02;;;;;;;22.30;13.00;;;5.60;99.90;;;;;;5077324;28;20205;-80
2022/12/19 12:22:51;;;;;;;26.07;14.17;;;5.60;99.90;;;;;;5076995;28;20237;-81
2022/12/19 12:25:30;;;;;;;21.93;12.67;;;5.60;99.90;;;;;;5077231;28;20212;-81
2022/12/19 12:28:16;;;;;;;24.63;12.27;;;5.70;99.90;;;;;;5076671;28;20226;-82
2022/12/19 12:30:49;;;;;;;25.50;13.63;;;5.70;99.90;;;;;;5078026;28;20210;-82
2022/12/19 12:33:24;;;;;;;23.67;12.40;;;5.80;99.90;;;;;;5076727;28;20552;-82
2022/12/19 12:35:56;;;;;;;23.63;13.23;;;5.70;99.90;;;;;;5077073;28;20193;-82
2022/12/19 12:38:37;;;;;;;26.20;13.93;;;5.70;99.90;;;;;;5076912;28;20222;-82
2022/12/19 12:41:13;;;;;;;22.10;12.73;;;5.70;99.90;;;;;;5077539;28;20194;-81
2022/12/19 12:43:52;;;;;;;24.97;13.27;;;5.70;99.90;;;;;;5077002;28;20226;-82
2022/12/19 12:46:23;;;;;;;25.13;14.00;;;5.80;99.90;;;;;;5077283;28;20206;-82
2022/12/19 12:48:55;;;;;;;23.47;13.10;;;5.90;99.90;;;;;;5077344;28;20228;-81
2022/12/19 12:51:24;;;;;;;23.30;13.43;;;5.80;99.90;;;;;;5076457;28;20218;-82
2022/12/19 12:53:58;;;;;;;23.53;13.27;;;5.90;99.90;;;;;;5077117;28;20221;-81
2022/12/19 12:56:25;;;;;;;23.53;13.13;;;5.80;99.90;;;;;;5076699;28;20201;-81
2022/12/19 12:59:19;;;;;;;22.60;12.70;;;5.90;99.90;;;;;;5076365;28;20240;-82
2022/12/19 13:01:51;;;;;;;23.73;13.10;;;6.00;99.90;;;;;;5071407;28;20206;-82